createdAt,value
2018-11-01T00:00:16.590Z,8.92
2018-11-01T00:01:25.231Z,8.87
2018-11-01T00:02:34.140Z,8.93
2018-11-01T00:03:42.785Z,8.77
2018-11-01T00:04:51.418Z,8.84
2018-11-01T00:06:00.055Z,8.89
2018-11-01T00:07:08.695Z,8.79
2018-11-01T00:08:17.339Z,8.82
2018-11-01T00:09:25.974Z,8.75
2018-11-01T00:10:34.878Z,8.75
2018-11-01T00:11:43.516Z,8.72
2018-11-01T00:12:52.162Z,8.69
2018-11-01T00:14:00.803Z,8.71
2018-11-01T00:15:09.443Z,8.69
2018-11-01T00:16:18.356Z,8.66
2018-11-01T00:17:27.262Z,8.72
2018-11-01T00:18:35.901Z,8.72
2018-11-01T00:19:44.546Z,8.77
2018-11-01T00:20:53.179Z,8.77
2018-11-01T00:22:01.830Z,8.74
2018-11-01T00:23:10.737Z,8.74
2018-11-01T00:24:19.921Z,8.74
2018-11-01T00:25:28.823Z,8.78
2018-11-01T00:26:37.462Z,8.72
2018-11-01T00:27:46.380Z,8.79
2018-11-01T00:28:55.296Z,8.71
2018-11-01T00:30:03.943Z,8.66
2018-11-01T00:31:12.582Z,8.71
2018-11-01T00:32:21.224Z,8.72
2018-11-01T00:33:29.867Z,8.63
2018-11-01T00:34:38.510Z,8.63
2018-11-01T00:35:47.151Z,8.75
2018-11-01T00:36:55.786Z,8.74
2018-11-01T00:38:04.689Z,8.78
2018-11-01T00:39:13.330Z,8.74
2018-11-01T00:40:21.995Z,8.71
2018-11-01T00:41:31.158Z,8.78
2018-11-01T00:42:39.795Z,8.69
2018-11-01T00:43:48.435Z,8.86
2018-11-01T00:44:57.076Z,8.71
2018-11-01T00:46:05.719Z,8.72
2018-11-01T00:47:14.359Z,8.77
2018-11-01T00:48:23.005Z,8.72
2018-11-01T00:49:31.635Z,8.78
2018-11-01T00:50:40.278Z,8.81
2018-11-01T00:51:48.918Z,8.92
2018-11-01T00:52:57.561Z,8.79
2018-11-01T00:54:06.202Z,8.84
2018-11-01T00:55:14.839Z,8.9
2018-11-01T00:56:23.736Z,8.84
2018-11-01T00:57:32.380Z,8.92
2018-11-01T00:58:41.027Z,8.9
2018-11-01T00:59:49.657Z,8.9
2018-11-01T01:00:58.296Z,8.93
2018-11-01T01:02:07.206Z,8.87
2018-11-01T01:03:16.380Z,8.9
2018-11-01T01:04:25.014Z,8.89
2018-11-01T01:05:33.915Z,8.97
2018-11-01T01:06:42.553Z,9.03
2018-11-01T01:07:51.196Z,8.97
2018-11-01T01:08:59.832Z,9.02
2018-11-01T01:10:08.472Z,9.09
2018-11-01T01:11:17.115Z,9.15
2018-11-01T01:12:26.020Z,9.11
2018-11-01T01:13:34.663Z,9.03
2018-11-01T01:14:43.302Z,9.19
2018-11-01T01:15:51.943Z,9.19
2018-11-01T01:17:00.851Z,9.15
2018-11-01T01:18:09.494Z,9.29
2018-11-01T01:19:18.401Z,9.21
2018-11-01T01:20:27.038Z,9.31
2018-11-01T01:21:35.675Z,9.27
2018-11-01T01:22:44.589Z,9.33
2018-11-01T01:23:53.227Z,9.27
2018-11-01T01:25:01.877Z,9.18
2018-11-01T01:26:10.503Z,9.3
2018-11-01T01:27:19.145Z,9.26
2018-11-01T01:28:27.787Z,9.34
2018-11-01T01:29:36.435Z,9.29
2018-11-01T01:30:45.078Z,9.19
2018-11-01T01:31:53.712Z,9.19
2018-11-01T01:33:02.351Z,9.26
2018-11-01T01:34:10.992Z,9.33
2018-11-01T01:35:19.636Z,9.21
2018-11-01T01:36:28.271Z,9.3
2018-11-01T01:37:36.910Z,9.33
2018-11-01T01:38:45.548Z,9.33
2018-11-01T01:39:54.190Z,9.21
2018-11-01T01:41:02.824Z,9.16
2018-11-01T01:42:11.471Z,9.26
2018-11-01T01:43:20.104Z,9.18
2018-11-01T01:44:28.758Z,9.19
2018-11-01T01:45:37.389Z,9.19
2018-11-01T01:46:46.025Z,9.19
2018-11-01T01:47:54.664Z,9.22
2018-11-01T01:49:03.305Z,9.31
2018-11-01T01:50:11.964Z,9.24
2018-11-01T01:51:20.584Z,9.27
2018-11-01T01:52:29.227Z,9.29
2018-11-01T01:53:37.857Z,9.21
2018-11-01T01:54:46.508Z,9.34
2018-11-01T01:55:55.409Z,9.26
2018-11-01T01:57:04.338Z,9.3
2018-11-01T01:58:12.969Z,9.3
2018-11-01T01:59:21.882Z,9.34
2018-11-01T02:00:30.519Z,9.31
2018-11-01T02:01:39.161Z,9.31
2018-11-01T02:02:47.791Z,9.39
2018-11-01T02:03:56.432Z,9.45
2018-11-01T02:05:05.078Z,9.42
2018-11-01T02:06:13.718Z,9.39
2018-11-01T02:07:22.363Z,9.47
2018-11-01T02:08:30.992Z,9.52
2018-11-01T02:09:39.632Z,9.55
2018-11-01T02:10:48.267Z,9.51
2018-11-01T02:11:56.928Z,9.59
2018-11-01T02:13:05.553Z,9.54
2018-11-01T02:14:14.198Z,9.63
2018-11-01T02:15:22.832Z,9.63
2018-11-01T02:16:31.480Z,9.67
2018-11-01T02:17:40.388Z,9.72
2018-11-01T02:18:49.029Z,9.77
2018-11-01T02:19:57.667Z,9.76
2018-11-01T02:21:06.570Z,9.76
2018-11-01T02:22:15.208Z,9.74
2018-11-01T02:23:23.845Z,9.7
2018-11-01T02:24:32.482Z,9.76
2018-11-01T02:25:41.120Z,9.85
2018-11-01T02:26:49.768Z,9.8
2018-11-01T02:27:58.403Z,9.8
2018-11-01T02:29:07.309Z,9.74
2018-11-01T02:30:16.211Z,9.81
2018-11-01T02:31:25.721Z,9.72
2018-11-01T02:32:34.292Z,9.77
2018-11-01T02:33:42.955Z,9.81
2018-11-01T02:34:51.574Z,9.8
2018-11-01T02:36:00.227Z,9.87
2018-11-01T02:37:08.868Z,9.8
2018-11-01T02:38:17.606Z,9.84
2018-11-01T02:39:26.471Z,9.84
2018-11-01T02:40:35.119Z,9.92
2018-11-01T02:41:44.024Z,9.9
2018-11-01T02:42:52.921Z,9.76
2018-11-01T02:44:01.836Z,9.88
2018-11-01T02:45:10.480Z,9.87
2018-11-01T02:46:19.124Z,9.9
2018-11-01T02:47:27.764Z,9.87
2018-11-01T02:48:36.681Z,9.88
2018-11-01T02:49:45.317Z,9.9
2018-11-01T02:50:53.956Z,9.87
2018-11-01T02:52:02.607Z,9.85
2018-11-01T02:53:11.252Z,9.85
2018-11-01T02:54:19.892Z,9.87
2018-11-01T02:55:28.532Z,9.85
2018-11-01T02:56:37.172Z,9.84
2018-11-01T02:57:45.820Z,9.87
2018-11-01T02:58:54.458Z,9.84
2018-11-01T03:00:03.098Z,9.88
2018-11-01T03:01:11.738Z,9.82
2018-11-01T03:02:20.374Z,9.84
2018-11-01T03:03:29.290Z,9.85
2018-11-01T03:04:37.934Z,9.81
2018-11-01T03:05:46.576Z,9.82
2018-11-01T03:06:55.210Z,9.84
2018-11-01T03:08:03.855Z,9.74
2018-11-01T03:09:12.494Z,9.82
2018-11-01T03:10:21.139Z,9.72
2018-11-01T03:11:29.779Z,9.7
2018-11-01T03:12:38.423Z,9.63
2018-11-01T03:13:47.347Z,9.63
2018-11-01T03:14:55.991Z,9.62
2018-11-01T03:16:04.625Z,9.56
2018-11-01T03:17:13.714Z,9.44
2018-11-01T03:18:22.178Z,9.4
2018-11-01T03:19:30.819Z,9.44
2018-11-01T03:20:39.722Z,9.3
2018-11-01T03:21:48.638Z,9.3
2018-11-01T03:22:57.282Z,9.21
2018-11-01T03:24:05.918Z,9.15
2018-11-01T03:25:14.837Z,9.15
2018-11-01T03:26:23.554Z,9.12
2018-11-01T03:27:32.113Z,9
2018-11-01T03:28:40.758Z,9.03
2018-11-01T03:29:49.672Z,9
2018-11-01T03:30:58.310Z,8.95
2018-11-01T03:32:07.238Z,8.93
2018-11-01T03:33:16.674Z,8.89
2018-11-01T03:34:25.326Z,8.89
2018-11-01T03:35:34.237Z,8.87
2018-11-01T03:36:42.866Z,8.89
2018-11-01T03:37:51.517Z,8.86
2018-11-01T03:39:00.199Z,8.84
2018-11-01T03:40:09.181Z,8.87
2018-11-01T03:41:17.819Z,8.84
2018-11-01T03:42:26.464Z,8.69
2018-11-01T03:43:35.095Z,8.72
2018-11-01T03:44:43.747Z,8.77
2018-11-01T03:45:52.457Z,8.59
2018-11-01T03:47:01.316Z,8.6
2018-11-01T03:48:09.947Z,8.63
2018-11-01T03:49:18.596Z,8.71
2018-11-01T03:50:27.237Z,8.69
2018-11-01T03:51:35.880Z,8.61
2018-11-01T03:52:44.508Z,8.64
2018-11-01T03:53:53.515Z,8.66
2018-11-01T03:55:02.802Z,8.6
2018-11-01T03:56:11.726Z,8.64
2018-11-01T03:57:20.365Z,8.6
2018-11-01T03:58:28.997Z,8.59
2018-11-01T03:59:37.911Z,8.54
2018-11-01T04:00:46.545Z,8.6
2018-11-01T04:01:55.194Z,8.53
2018-11-01T04:03:03.826Z,8.44
2018-11-01T04:04:12.475Z,8.44
2018-11-01T04:05:21.372Z,8.42
2018-11-01T04:06:30.288Z,8.41
2018-11-01T04:07:39.188Z,8.28
2018-11-01T04:08:47.828Z,8.27
2018-11-01T04:09:56.464Z,8.26
2018-11-01T04:11:05.391Z,8.32
2018-11-01T04:12:14.562Z,8.17
2018-11-01T04:13:23.200Z,8.18
2018-11-01T04:14:32.101Z,8.18
2018-11-01T04:15:40.741Z,8.16
2018-11-01T04:16:49.466Z,8.17
2018-11-01T04:17:58.021Z,8.14
2018-11-01T04:19:07.201Z,8.14
2018-11-01T04:20:15.830Z,8.13
2018-11-01T04:21:24.478Z,8.02
2018-11-01T04:22:33.379Z,8.08
2018-11-01T04:23:42.295Z,8.09
2018-11-01T04:24:50.935Z,8.09
2018-11-01T04:25:59.588Z,8.11
2018-11-01T04:27:08.496Z,8.06
2018-11-01T04:28:17.139Z,8.03
2018-11-01T04:29:26.298Z,8.03
2018-11-01T04:30:34.932Z,7.99
2018-11-01T04:31:43.837Z,8.02
2018-11-01T04:32:52.808Z,8.02
2018-11-01T04:34:01.679Z,8.02
2018-11-01T04:35:10.570Z,7.99
2018-11-01T04:36:19.259Z,8.03
2018-11-01T04:37:27.860Z,7.98
2018-11-01T04:38:36.782Z,7.99
2018-11-01T04:39:45.424Z,7.96
2018-11-01T04:40:54.059Z,7.96
2018-11-01T04:42:02.703Z,7.87
2018-11-01T04:43:11.630Z,7.98
2018-11-01T04:44:20.314Z,8.02
2018-11-01T04:45:29.561Z,7.85
2018-11-01T04:46:38.203Z,7.88
2018-11-01T04:47:46.995Z,7.91
2018-11-01T04:48:55.479Z,7.83
2018-11-01T04:50:04.112Z,7.91
2018-11-01T04:51:12.754Z,7.83
2018-11-01T04:52:21.405Z,7.8
2018-11-01T04:53:30.027Z,7.81
2018-11-01T04:54:38.670Z,7.84
2018-11-01T04:55:47.568Z,7.77
2018-11-01T04:56:56.216Z,7.69
2018-11-01T04:58:04.846Z,7.74
2018-11-01T04:59:13.486Z,7.84
2018-11-01T05:00:22.128Z,7.83
2018-11-01T05:01:30.782Z,7.77
2018-11-01T05:02:39.675Z,7.7
2018-11-01T05:03:48.321Z,7.69
2018-11-01T05:04:56.991Z,7.72
2018-11-01T05:06:05.908Z,7.75
2018-11-01T05:07:14.544Z,7.72
2018-11-01T05:08:23.178Z,7.64
2018-11-01T05:09:31.815Z,7.62
2018-11-01T05:10:40.450Z,7.64
2018-11-01T05:11:49.104Z,7.56
2018-11-01T05:12:58.112Z,7.53
2018-11-01T05:14:07.017Z,7.64
2018-11-01T05:15:15.699Z,7.58
2018-11-01T05:16:24.296Z,7.55
2018-11-01T05:17:32.936Z,7.53
2018-11-01T05:18:41.574Z,7.51
2018-11-01T05:19:50.205Z,7.5
2018-11-01T05:20:58.851Z,7.58
2018-11-01T05:22:07.489Z,7.55
2018-11-01T05:23:16.129Z,7.58
2018-11-01T05:24:24.758Z,7.58
2018-11-01T05:25:33.660Z,7.62
2018-11-01T05:26:42.305Z,7.51
2018-11-01T05:27:50.948Z,7.46
2018-11-01T05:28:59.588Z,7.5
2018-11-01T05:30:08.218Z,7.5
2018-11-01T05:31:16.861Z,7.5
2018-11-01T05:32:25.495Z,7.47
2018-11-01T05:33:34.141Z,7.46
2018-11-01T05:34:42.770Z,7.44
2018-11-01T05:35:51.687Z,7.41
2018-11-01T05:37:00.321Z,7.44
2018-11-01T05:38:09.042Z,7.46
2018-11-01T05:39:17.598Z,7.47
2018-11-01T05:40:26.503Z,7.44
2018-11-01T05:41:35.405Z,7.46
2018-11-01T05:42:44.048Z,7.41
2018-11-01T05:43:52.947Z,7.46
2018-11-01T05:45:01.584Z,7.43
2018-11-01T05:46:10.219Z,7.37
2018-11-01T05:47:18.851Z,7.4
2018-11-01T05:48:27.496Z,7.26
2018-11-01T05:49:36.134Z,7.22
2018-11-01T05:50:45.039Z,7.31
2018-11-01T05:51:53.675Z,7.21
2018-11-01T05:53:02.324Z,7.26
2018-11-01T05:54:11.224Z,7.22
2018-11-01T05:55:19.861Z,7.18
2018-11-01T05:56:28.499Z,7.15
2018-11-01T05:57:37.141Z,7.08
2018-11-01T05:58:45.778Z,7.1
2018-11-01T05:59:54.483Z,7.05
2018-11-01T06:01:03.055Z,7.03
2018-11-01T06:02:11.694Z,7
2018-11-01T06:03:20.332Z,6.9
2018-11-01T06:04:28.974Z,6.89
2018-11-01T06:05:37.894Z,6.95
2018-11-01T06:06:46.516Z,6.82
2018-11-01T06:07:55.423Z,6.8
2018-11-01T06:09:04.645Z,6.82
2018-11-01T06:10:13.244Z,6.8
2018-11-01T06:11:21.881Z,6.8
2018-11-01T06:12:30.582Z,6.77
2018-11-01T06:13:39.160Z,6.78
2018-11-01T06:14:47.800Z,6.7
2018-11-01T06:15:56.693Z,6.68
2018-11-01T06:17:05.336Z,6.72
2018-11-01T06:18:13.973Z,6.72
2018-11-01T06:19:22.619Z,6.6
2018-11-01T06:20:31.273Z,6.75
2018-11-01T06:21:40.175Z,6.59
2018-11-01T06:22:48.817Z,6.59
2018-11-01T06:23:57.447Z,6.56
2018-11-01T06:25:06.365Z,6.53
2018-11-01T06:26:15.003Z,6.57
2018-11-01T06:27:23.641Z,6.54
2018-11-01T06:28:32.276Z,6.54
2018-11-01T06:29:40.924Z,6.57
2018-11-01T06:30:49.819Z,6.53
2018-11-01T06:31:58.457Z,6.52
2018-11-01T06:33:07.359Z,6.41
2018-11-01T06:34:15.996Z,6.46
2018-11-01T06:35:24.628Z,6.5
2018-11-01T06:36:33.265Z,6.49
2018-11-01T06:37:41.901Z,6.46
2018-11-01T06:38:50.805Z,6.53
2018-11-01T06:39:59.447Z,6.46
2018-11-01T06:41:08.349Z,6.49
2018-11-01T06:42:16.990Z,6.57
2018-11-01T06:43:25.631Z,6.47
2018-11-01T06:44:34.317Z,6.54
2018-11-01T06:45:43.172Z,6.6
2018-11-01T06:46:51.811Z,6.53
2018-11-01T06:48:00.447Z,6.53
2018-11-01T06:49:09.083Z,6.53
2018-11-01T06:50:17.726Z,6.64
2018-11-01T06:51:26.369Z,6.57
2018-11-01T06:52:35.499Z,6.53
2018-11-01T06:53:44.021Z,6.47
2018-11-01T06:54:52.651Z,6.59
2018-11-01T06:56:01.297Z,6.54
2018-11-01T06:57:10.200Z,6.47
2018-11-01T06:58:18.883Z,6.46
2018-11-01T06:59:28.409Z,6.46
2018-11-01T07:00:37.253Z,6.44
2018-11-01T07:01:45.894Z,6.46
2018-11-01T07:02:54.534Z,6.41
2018-11-01T07:04:03.172Z,6.46
2018-11-01T07:05:12.075Z,6.52
2018-11-01T07:06:20.716Z,6.49
2018-11-01T07:07:29.351Z,6.44
2018-11-01T07:08:37.990Z,6.38
2018-11-01T07:09:46.624Z,6.38
2018-11-01T07:10:55.271Z,6.43
2018-11-01T07:12:03.908Z,6.38
2018-11-01T07:13:12.550Z,6.44
2018-11-01T07:14:21.186Z,6.43
2018-11-01T07:15:29.827Z,6.43
2018-11-01T07:16:38.465Z,6.49
2018-11-01T07:17:47.209Z,6.46
2018-11-01T07:18:55.752Z,6.39
2018-11-01T07:20:04.393Z,6.49
2018-11-01T07:21:13.032Z,6.43
2018-11-01T07:22:21.670Z,6.47
2018-11-01T07:23:30.311Z,6.34
2018-11-01T07:24:38.944Z,6.38
2018-11-01T07:25:47.950Z,6.43
2018-11-01T07:26:56.567Z,6.41
2018-11-01T07:28:05.471Z,6.47
2018-11-01T07:29:14.365Z,6.41
2018-11-01T07:30:23.006Z,6.41
2018-11-01T07:31:31.903Z,6.5
2018-11-01T07:32:41.281Z,6.46
2018-11-01T07:33:49.874Z,6.49
2018-11-01T07:34:58.775Z,6.46
2018-11-01T07:36:07.675Z,6.53
2018-11-01T07:37:16.569Z,6.52
2018-11-01T07:38:25.219Z,6.53
2018-11-01T07:39:33.852Z,6.5
2018-11-01T07:40:42.492Z,6.5
2018-11-01T07:41:51.122Z,6.54
2018-11-01T07:42:59.767Z,6.53
2018-11-01T07:44:08.402Z,6.57
2018-11-01T07:45:17.046Z,6.6
2018-11-01T07:46:25.936Z,6.67
2018-11-01T07:47:34.585Z,6.71
2018-11-01T07:48:43.312Z,6.74
2018-11-01T07:49:51.858Z,6.75
2018-11-01T07:51:00.748Z,6.78
2018-11-01T07:52:09.414Z,6.77
2018-11-01T07:53:18.298Z,6.95
2018-11-01T07:54:27.197Z,6.95
2018-11-01T07:55:35.838Z,7.01
2018-11-01T07:56:44.467Z,7.05
2018-11-01T07:57:53.111Z,7.07
2018-11-01T07:59:01.749Z,7.07
2018-11-01T08:00:10.398Z,7.08
2018-11-01T08:01:19.027Z,7.13
2018-11-01T08:02:27.670Z,7.19
2018-11-01T08:03:36.303Z,7.15
2018-11-01T08:04:44.953Z,7.14
2018-11-01T08:05:53.622Z,7.25
2018-11-01T08:07:02.785Z,7.25
2018-11-01T08:08:11.682Z,7.22
2018-11-01T08:09:20.332Z,7.31
2018-11-01T08:10:28.965Z,7.25
2018-11-01T08:11:37.641Z,7.29
2018-11-01T08:12:46.242Z,7.36
2018-11-01T08:13:55.137Z,7.37
2018-11-01T08:15:03.784Z,7.43
2018-11-01T08:16:12.418Z,7.37
2018-11-01T08:17:21.062Z,7.37
2018-11-01T08:18:29.692Z,7.4
2018-11-01T08:19:38.429Z,7.46
2018-11-01T08:20:47.070Z,7.48
2018-11-01T08:21:56.048Z,7.46
2018-11-01T08:23:04.677Z,7.51
2018-11-01T08:24:13.321Z,7.53
2018-11-01T08:25:21.962Z,7.59
2018-11-01T08:26:30.602Z,7.56
2018-11-01T08:27:39.235Z,7.72
2018-11-01T08:28:48.214Z,7.75
2018-11-01T08:29:56.862Z,7.69
2018-11-01T08:31:05.504Z,7.74
2018-11-01T08:32:14.405Z,7.8
2018-11-01T08:33:23.036Z,7.81
2018-11-01T08:34:31.942Z,7.81
2018-11-01T08:35:40.842Z,7.96
2018-11-01T08:36:49.733Z,7.99
2018-11-01T08:37:58.910Z,7.98
2018-11-01T08:39:07.608Z,8.11
2018-11-01T08:40:16.187Z,8.14
2018-11-01T08:41:24.822Z,8.16
2018-11-01T08:42:33.468Z,8.16
2018-11-01T08:43:42.371Z,8.26
2018-11-01T08:44:51.015Z,8.28
2018-11-01T08:45:59.643Z,8.31
2018-11-01T08:47:08.284Z,8.39
2018-11-01T08:48:16.928Z,8.42
2018-11-01T08:49:25.679Z,8.44
2018-11-01T08:50:34.209Z,8.5
2018-11-01T08:51:42.841Z,8.54
2018-11-01T08:52:51.485Z,8.61
2018-11-01T08:54:00.391Z,8.68
2018-11-01T08:55:09.308Z,8.75
2018-11-01T08:56:17.939Z,8.72
2018-11-01T08:57:26.591Z,8.75
2018-11-01T08:58:35.498Z,8.86
2018-11-01T08:59:44.407Z,8.9
2018-11-01T09:00:53.301Z,8.92
2018-11-01T09:02:01.943Z,9.03
2018-11-01T09:03:10.590Z,9.08
2018-11-01T09:04:19.344Z,9.02
2018-11-01T09:05:27.867Z,9.13
2018-11-01T09:06:36.504Z,9.16
2018-11-01T09:07:45.343Z,9.16
2018-11-01T09:08:54.383Z,9.29
2018-11-01T09:10:03.038Z,9.33
2018-11-01T09:11:11.939Z,9.36
2018-11-01T09:12:20.583Z,9.33
2018-11-01T09:13:29.215Z,9.34
2018-11-01T09:14:37.889Z,9.45
2018-11-01T09:15:46.499Z,9.45
2018-11-01T09:16:55.145Z,9.51
2018-11-01T09:18:03.777Z,9.47
2018-11-01T09:19:12.429Z,9.56
2018-11-01T09:20:21.329Z,9.56
2018-11-01T09:21:29.968Z,9.64
2018-11-01T09:22:38.601Z,9.69
2018-11-01T09:23:47.242Z,9.76
2018-11-01T09:24:55.887Z,9.8
2018-11-01T09:26:04.528Z,9.74
2018-11-01T09:27:13.231Z,9.76
2018-11-01T09:28:22.085Z,9.84
2018-11-01T09:29:31.004Z,9.87
2018-11-01T09:30:39.903Z,9.9
2018-11-01T09:31:48.554Z,9.87
2018-11-01T09:32:57.231Z,10
2018-11-01T09:34:05.828Z,9.95
2018-11-01T09:35:14.475Z,9.88
2018-11-01T09:36:23.114Z,10.07
2018-11-01T09:37:31.749Z,10.07
2018-11-01T09:38:40.657Z,10.13
2018-11-01T09:39:49.294Z,10.07
2018-11-01T09:40:57.941Z,10.07
2018-11-01T09:42:06.582Z,10.23
2018-11-01T09:43:15.223Z,10.21
2018-11-01T09:44:23.866Z,10.15
2018-11-01T09:45:32.514Z,10.18
2018-11-01T09:46:41.504Z,10.13
2018-11-01T09:47:50.070Z,10.23
2018-11-01T09:48:58.700Z,10.33
2018-11-01T09:50:07.619Z,10.42
2018-11-01T09:51:16.255Z,10.38
2018-11-01T09:52:24.899Z,10.38
2018-11-01T09:53:33.803Z,10.43
2018-11-01T09:54:42.442Z,10.46
2018-11-01T09:55:52.182Z,10.46
2018-11-01T09:57:00.651Z,10.62
2018-11-01T09:58:09.295Z,10.67
2018-11-01T09:59:17.928Z,10.62
2018-11-01T10:00:26.572Z,10.64
2018-11-01T10:01:35.214Z,10.72
2018-11-01T10:02:43.857Z,10.77
2018-11-01T10:03:52.503Z,10.76
2018-11-01T10:05:01.151Z,10.72
2018-11-01T10:06:09.977Z,10.86
2018-11-01T10:07:18.430Z,10.95
2018-11-01T10:08:27.078Z,10.95
2018-11-01T10:09:35.713Z,10.9
2018-11-01T10:10:44.356Z,10.98
2018-11-01T10:11:52.999Z,11.01
2018-11-01T10:13:01.643Z,11.02
2018-11-01T10:14:10.278Z,11.1
2018-11-01T10:15:19.104Z,11.1
2018-11-01T10:16:28.346Z,11.01
2018-11-01T10:17:37.188Z,11.07
2018-11-01T10:18:45.397Z,11.08
2018-11-01T10:19:54.299Z,11.16
2018-11-01T10:21:03.217Z,11.23
2018-11-01T10:22:11.904Z,11.31
2018-11-01T10:23:20.882Z,11.18
2018-11-01T10:24:29.516Z,11.18
2018-11-01T10:25:38.156Z,11.16
2018-11-01T10:26:46.799Z,11.08
2018-11-01T10:27:55.439Z,11.15
2018-11-01T10:29:04.086Z,11.04
2018-11-01T10:30:12.729Z,11.16
2018-11-01T10:31:21.648Z,11.19
2018-11-01T10:32:30.299Z,11.16
2018-11-01T10:33:38.962Z,11.22
2018-11-01T10:34:47.587Z,11.25
2018-11-01T10:35:56.218Z,11.25
2018-11-01T10:37:04.859Z,11.31
2018-11-01T10:38:13.506Z,11.37
2018-11-01T10:39:22.152Z,11.38
2018-11-01T10:40:30.796Z,11.38
2018-11-01T10:41:39.711Z,11.41
2018-11-01T10:42:48.363Z,11.4
2018-11-01T10:43:57.000Z,11.45
2018-11-01T10:45:05.917Z,11.44
2018-11-01T10:46:14.550Z,11.48
2018-11-01T10:47:23.527Z,11.52
2018-11-01T10:48:32.100Z,11.56
2018-11-01T10:49:40.752Z,11.56
2018-11-01T10:50:49.388Z,11.6
2018-11-01T10:51:58.295Z,11.56
2018-11-01T10:53:06.938Z,11.65
2018-11-01T10:54:15.688Z,11.56
2018-11-01T10:55:24.224Z,11.59
2018-11-01T10:56:33.129Z,11.56
2018-11-01T10:57:41.769Z,11.55
2018-11-01T10:58:50.682Z,11.52
2018-11-01T10:59:59.765Z,11.51
2018-11-01T11:01:09.014Z,11.59
2018-11-01T11:02:17.587Z,11.7
2018-11-01T11:03:26.220Z,11.65
2018-11-01T11:04:34.875Z,11.67
2018-11-01T11:05:43.506Z,11.7
2018-11-01T11:06:52.152Z,11.73
2018-11-01T11:08:01.320Z,11.67
2018-11-01T11:09:10.234Z,11.77
2018-11-01T11:10:18.875Z,11.8
2018-11-01T11:11:27.790Z,11.8
2018-11-01T11:12:36.421Z,11.77
2018-11-01T11:13:45.069Z,11.78
2018-11-01T11:14:53.976Z,11.85
2018-11-01T11:16:02.622Z,11.78
2018-11-01T11:17:11.264Z,11.8
2018-11-01T11:18:19.898Z,11.83
2018-11-01T11:19:28.545Z,11.88
2018-11-01T11:20:37.325Z,11.97
2018-11-01T11:21:45.843Z,11.93
2018-11-01T11:22:54.477Z,12
2018-11-01T11:24:03.124Z,12
2018-11-01T11:25:11.764Z,11.99
2018-11-01T11:26:20.677Z,12.07
2018-11-01T11:27:29.323Z,12.14
2018-11-01T11:28:37.959Z,12.12
2018-11-01T11:29:46.603Z,12.23
2018-11-01T11:30:55.249Z,12.21
2018-11-01T11:32:03.893Z,12.2
2018-11-01T11:33:12.536Z,12.23
2018-11-01T11:34:21.180Z,12.2
2018-11-01T11:35:29.955Z,12.21
2018-11-01T11:36:38.960Z,12.26
2018-11-01T11:37:47.605Z,12.17
2018-11-01T11:38:56.310Z,12.15
2018-11-01T11:40:05.259Z,12.21
2018-11-01T11:41:13.911Z,12.14
2018-11-01T11:42:22.575Z,12.25
2018-11-01T11:43:31.194Z,12.23
2018-11-01T11:44:40.096Z,12.11
2018-11-01T11:45:48.741Z,12.2
2018-11-01T11:46:57.382Z,12.23
2018-11-01T11:48:06.028Z,12.25
2018-11-01T11:49:14.665Z,12.12
2018-11-01T11:50:23.311Z,12.17
2018-11-01T11:51:32.055Z,12.2
2018-11-01T11:52:40.609Z,12.14
2018-11-01T11:53:49.262Z,12.18
2018-11-01T11:54:58.433Z,12.15
2018-11-01T11:56:07.078Z,12.14
2018-11-01T11:57:16.140Z,12.26
2018-11-01T11:58:24.786Z,12.17
2018-11-01T11:59:33.424Z,12.28
2018-11-01T12:00:42.072Z,12.15
2018-11-01T12:01:50.715Z,12.25
2018-11-01T12:02:59.680Z,12.18
2018-11-01T12:04:08.317Z,12.17
2018-11-01T12:05:17.037Z,12.3
2018-11-01T12:06:26.200Z,12.18
2018-11-01T12:07:35.257Z,12.12
2018-11-01T12:08:43.897Z,12.14
2018-11-01T12:09:52.546Z,12.23
2018-11-01T12:11:01.447Z,12.18
2018-11-01T12:12:10.085Z,12.17
2018-11-01T12:13:18.734Z,12.25
2018-11-01T12:14:27.374Z,12.18
2018-11-01T12:15:36.014Z,12.17
2018-11-01T12:16:44.658Z,12.18
2018-11-01T12:17:53.305Z,12.2
2018-11-01T12:19:01.948Z,12.2
2018-11-01T12:20:10.588Z,12.21
2018-11-01T12:21:19.223Z,12.15
2018-11-01T12:22:28.423Z,12.14
2018-11-01T12:23:36.966Z,12.15
2018-11-01T12:24:45.610Z,12.14
2018-11-01T12:25:54.248Z,12.17
2018-11-01T12:27:02.895Z,12.15
2018-11-01T12:28:11.586Z,12.23
2018-11-01T12:29:20.180Z,12.21
2018-11-01T12:30:28.820Z,12.14
2018-11-01T12:31:37.469Z,12.1
2018-11-01T12:32:46.112Z,12.15
2018-11-01T12:33:54.754Z,12.17
2018-11-01T12:35:03.446Z,12.21
2018-11-01T12:36:12.200Z,12.21
2018-11-01T12:37:20.682Z,12.14
2018-11-01T12:38:29.325Z,12.07
2018-11-01T12:39:37.961Z,12.12
2018-11-01T12:40:46.608Z,12.11
2018-11-01T12:41:55.512Z,12.1
2018-11-01T12:43:04.155Z,12.07
2018-11-01T12:44:13.067Z,12.02
2018-11-01T12:45:21.712Z,12.03
2018-11-01T12:46:30.356Z,11.89
2018-11-01T12:47:39.002Z,11.99
2018-11-01T12:48:47.647Z,11.96
2018-11-01T12:49:56.458Z,11.93
2018-11-01T12:51:05.428Z,11.88
2018-11-01T12:52:14.071Z,11.95
2018-11-01T12:53:22.715Z,11.93
2018-11-01T12:54:31.355Z,11.86
2018-11-01T12:55:39.997Z,11.85
2018-11-01T12:56:48.644Z,11.83
2018-11-01T12:57:57.291Z,11.76
2018-11-01T12:59:05.928Z,11.83
2018-11-01T13:00:14.574Z,11.78
2018-11-01T13:01:23.212Z,11.85
2018-11-01T13:02:31.964Z,11.83
2018-11-01T13:03:40.503Z,11.78
2018-11-01T13:04:49.148Z,11.78
2018-11-01T13:05:57.786Z,11.74
2018-11-01T13:07:06.437Z,11.77
2018-11-01T13:08:15.347Z,11.74
2018-11-01T13:09:23.988Z,11.73
2018-11-01T13:10:32.636Z,11.76
2018-11-01T13:11:41.633Z,11.73
2018-11-01T13:12:50.288Z,11.78
2018-11-01T13:13:59.190Z,11.71
2018-11-01T13:15:07.832Z,11.68
2018-11-01T13:16:17.008Z,11.73
2018-11-01T13:17:25.928Z,11.74
2018-11-01T13:18:34.854Z,11.74
2018-11-01T13:19:43.499Z,11.74
2018-11-01T13:20:52.397Z,11.78
2018-11-01T13:22:01.048Z,11.71
2018-11-01T13:23:09.687Z,11.74
2018-11-01T13:24:18.340Z,11.7
2018-11-01T13:25:27.247Z,11.71
2018-11-01T13:26:35.885Z,11.74
2018-11-01T13:27:44.530Z,11.78
2018-11-01T13:28:53.168Z,11.78
2018-11-01T13:30:01.828Z,11.78
2018-11-01T13:31:10.725Z,11.7
2018-11-01T13:32:19.371Z,11.7
2018-11-01T13:33:28.281Z,11.67
2018-11-01T13:34:36.991Z,11.68
2018-11-01T13:35:45.887Z,11.67
2018-11-01T13:36:54.797Z,11.71
2018-11-01T13:38:03.710Z,11.77
2018-11-01T13:39:12.625Z,11.78
2018-11-01T13:40:21.938Z,11.77
2018-11-01T13:41:30.249Z,11.7
2018-11-01T13:42:38.876Z,11.71
2018-11-01T13:43:47.515Z,11.71
2018-11-01T13:44:56.165Z,11.78
2018-11-01T13:46:04.801Z,11.78
2018-11-01T13:47:13.505Z,11.76
2018-11-01T13:48:22.600Z,11.74
2018-11-01T13:49:32.465Z,11.73
2018-11-01T13:50:41.360Z,11.71
2018-11-01T13:51:50.268Z,11.76
2018-11-01T13:52:59.165Z,11.76
2018-11-01T13:54:07.819Z,11.74
2018-11-01T13:55:16.458Z,11.68
2018-11-01T13:56:25.534Z,11.76
2018-11-01T13:57:34.093Z,11.8
2018-11-01T13:58:42.744Z,11.73
2018-11-01T13:59:51.385Z,11.74
2018-11-01T14:01:00.029Z,11.74
2018-11-01T14:02:08.935Z,11.7
2018-11-01T14:03:17.837Z,11.71
2018-11-01T14:04:26.482Z,11.71
2018-11-01T14:05:35.184Z,11.73
2018-11-01T14:06:43.768Z,11.73
2018-11-01T14:07:52.408Z,11.74
2018-11-01T14:09:01.054Z,11.7
2018-11-01T14:10:09.695Z,11.71
2018-11-01T14:11:18.347Z,11.62
2018-11-01T14:12:26.983Z,11.67
2018-11-01T14:13:35.824Z,11.71
2018-11-01T14:14:44.585Z,11.7
2018-11-01T14:15:54.525Z,11.68
2018-11-01T14:17:03.166Z,11.71
2018-11-01T14:18:12.078Z,11.65
2018-11-01T14:19:20.717Z,11.62
2018-11-01T14:20:29.356Z,11.67
2018-11-01T14:21:38.278Z,11.62
2018-11-01T14:22:46.913Z,11.59
2018-11-01T14:23:55.825Z,11.49
2018-11-01T14:25:04.722Z,11.58
2018-11-01T14:26:13.368Z,11.48
2018-11-01T14:27:22.006Z,11.49
2018-11-01T14:28:30.648Z,11.41
2018-11-01T14:29:39.293Z,11.33
2018-11-01T14:30:47.975Z,11.3
2018-11-01T14:31:56.576Z,11.3
2018-11-01T14:33:05.478Z,11.33
2018-11-01T14:34:14.123Z,11.26
2018-11-01T14:35:22.766Z,11.3
2018-11-01T14:36:31.406Z,11.33
2018-11-01T14:37:40.082Z,11.26
2018-11-01T14:38:48.682Z,11.22
2018-11-01T14:39:57.858Z,11.23
2018-11-01T14:41:06.503Z,11.26
2018-11-01T14:42:15.144Z,11.25
2018-11-01T14:43:23.779Z,11.23
2018-11-01T14:44:32.458Z,11.18
2018-11-01T14:45:41.507Z,11.18
2018-11-01T14:46:50.148Z,11.2
2018-11-01T14:47:58.785Z,11.16
2018-11-01T14:49:07.432Z,11.16
2018-11-01T14:50:16.081Z,11.15
2018-11-01T14:51:24.715Z,11.1
2018-11-01T14:52:33.896Z,11.12
2018-11-01T14:53:42.182Z,11.1
2018-11-01T14:54:51.942Z,11.02
2018-11-01T14:56:00.282Z,11.01
2018-11-01T14:57:08.933Z,11
2018-11-01T14:58:18.112Z,11.02
2018-11-01T14:59:29.357Z,10.98
2018-11-01T15:00:36.097Z,10.95
2018-11-01T15:01:44.746Z,10.97
2018-11-01T15:02:53.392Z,10.87
2018-11-01T15:04:02.295Z,10.94
2018-11-01T15:05:11.209Z,10.92
2018-11-01T15:06:19.858Z,10.9
2018-11-01T15:07:28.802Z,10.86